Time;durP1;ratioP1;P1;durP2;ratioP2;P2;SDS_P1;SDS_P2;PMS_P1;PMS_P2;Temp;Humidity;BMP_temperature;BMP_pressure;BME280_temperature;BME280_humidity;BME280_pressure;Samples;Min_cycle;Max_cycle;Signal;HPM_P1;HPM_P2
2021/10/27 00:00:07;;;;;;;27.30;17.48;;;;;;;12.36;100.00;101650.91;4989420;28;20106;-89
2021/10/27 00:02:35;;;;;;;26.02;16.70;;;;;;;12.39;100.00;101651.41;4989698;28;20491;-84
2021/10/27 00:05:12;;;;;;;25.02;16.15;;;;;;;12.37;100.00;101653.44;4985192;28;20467;-87
2021/10/27 00:07:38;;;;;;;31.40;18.48;;;;;;;12.39;100.00;101655.97;5005315;28;20029;-87
2021/10/27 00:10:03;;;;;;;25.33;15.65;;;;;;;12.40;100.00;101658.50;4976319;28;20121;-87
2021/10/27 00:12:29;;;;;;;29.15;16.98;;;;;;;12.40;100.00;101650.44;5001325;28;20042;-84
2021/10/27 00:14:55;;;;;;;27.50;16.27;;;;;;;12.40;100.00;101650.44;4971608;28;20042;-85
2021/10/27 00:17:22;;;;;;;32.10;19.13;;;;;;;12.40;100.00;101649.59;4991915;28;20042;-83
2021/10/27 00:19:51;;;;;;;28.02;17.55;;;;;;;12.41;100.00;101657.50;5001999;28;20437;-86
2021/10/27 00:22:20;;;;;;;32.30;18.42;;;;;;;12.39;100.00;101654.13;4989726;28;20054;-86
2021/10/27 00:24:46;;;;;;;34.67;19.77;;;;;;;12.39;100.00;101662.19;4988009;28;20125;-90
2021/10/27 00:27:12;;;;;;;29.52;19.20;;;;;;;12.36;100.00;101657.13;5007735;28;20050;-82
2021/10/27 00:29:39;;;;;;;29.88;20.50;;;;;;;12.37;100.00;101657.97;4977209;28;20042;-84
2021/10/27 00:32:07;;;;;;;30.17;18.90;;;;;;;12.37;100.00;101663.34;5005794;28;20041;-84
2021/10/27 00:34:32;;;;;;;30.38;19.15;;;;;;;12.37;100.00;101668.72;4994912;28;20038;-85
2021/10/27 00:36:58;;;;;;;29.98;19.77;;;;;;;12.34;100.00;101664.53;5002462;28;20125;-81
2021/10/27 00:39:23;;;;;;;32.92;20.23;;;;;;;12.35;100.00;101655.44;5019137;28;20042;-84
2021/10/27 00:41:51;;;;;;;30.00;19.85;;;;;;;12.35;100.00;101676.97;4993124;28;20069;-86
2021/10/27 00:44:19;;;;;;;31.35;17.67;;;;;;;12.35;100.00;101666.19;4977159;28;20108;-90
2021/10/27 00:46:45;;;;;;;34.43;19.53;;;;;;;12.35;100.00;101668.91;4999438;28;20037;-91
2021/10/27 00:49:10;;;;;;;27.65;18.00;;;;;;;12.36;100.00;101662.50;5007627;28;20277;-84
2021/10/27 00:51:38;;;;;;;30.38;19.80;;;;;;;12.37;100.00;101650.75;4973074;28;20392;-84
2021/10/27 00:54:04;;;;;;;31.70;22.10;;;;;;;12.37;100.00;101661.53;4973464;28;20129;-85
2021/10/27 00:56:31;;;;;;;33.03;20.55;;;;;;;12.40;100.00;101655.81;5008300;28;20057;-88
2021/10/27 00:58:57;;;;;;;32.13;21.05;;;;;;;12.40;100.00;101642.38;4986925;28;20030;-89
2021/10/27 01:01:22;;;;;;;30.42;22.10;;;;;;;12.42;100.00;101645.72;4990894;28;20048;-88
2021/10/27 01:03:49;;;;;;;34.13;21.65;;;;;;;12.44;100.00;101664.44;4986339;28;20088;-85
2021/10/27 01:06:14;;;;;;;30.95;20.77;;;;;;;12.45;100.00;101657.19;4962696;28;20038;-84
2021/10/27 01:08:40;;;;;;;36.20;22.77;;;;;;;12.48;100.00;101659.56;4991605;28;20034;-86
2021/10/27 01:11:06;;;;;;;32.53;20.30;;;;;;;12.50;100.00;101657.56;4974273;28;20120;-81
2021/10/27 01:13:33;;;;;;;31.52;20.30;;;;;;;12.48;100.00;101655.03;4980689;28;20132;-88
2021/10/27 01:16:00;;;;;;;36.08;20.42;;;;;;;12.48;100.00;101659.56;4973217;28;20037;-83
2021/10/27 01:18:26;;;;;;;31.25;20.40;;;;;;;12.50;100.00;101654.88;5007856;28;20042;-85
2021/10/27 01:20:52;;;;;;;30.52;21.73;;;;;;;12.50;100.00;101657.56;4985118;28;20037;-83
2021/10/27 01:23:17;;;;;;;31.42;20.17;;;;;;;12.51;100.00;101659.25;4985998;28;20393;-86
2021/10/27 01:25:43;;;;;;;29.08;20.52;;;;;;;12.53;100.00;101651.88;4971487;28;20042;-87
2021/10/27 01:28:09;;;;;;;30.20;20.45;;;;;;;12.53;100.00;101662.66;5007600;28;20045;-85
2021/10/27 01:30:45;;;;;;;34.60;21.05;;;;;;;12.54;100.00;101658.94;4958832;28;20055;-84
2021/10/27 01:33:11;;;;;;;31.90;20.30;;;;;;;12.54;100.00;101659.78;5002835;28;20046;-84
2021/10/27 01:35:38;;;;;;;30.58;20.73;;;;;;;12.54;100.00;101659.78;4986288;28;20393;-86
2021/10/27 01:38:10;;;;;;;30.95;20.05;;;;;;;12.57;100.00;101661.31;4985738;28;20052;-83
2021/10/27 01:40:36;;;;;;;30.05;18.95;;;;;;;12.58;100.00;101654.97;4976441;28;20038;-91
2021/10/27 01:43:02;;;;;;;30.33;20.23;;;;;;;12.59;100.00;101660.16;4976221;28;20038;-85
2021/10/27 01:45:29;;;;;;;27.45;18.42;;;;;;;12.60;100.00;101647.53;5009580;28;20565;-89
2021/10/27 01:47:55;;;;;;;27.65;18.52;;;;;;;12.63;100.00;101647.25;4991615;28;20601;-87
2021/10/27 01:50:22;;;;;;;26.63;19.05;;;;;;;12.63;100.00;101645.41;5007883;28;20125;-82
2021/10/27 01:52:49;;;;;;;28.48;18.65;;;;;;;12.64;100.00;101638.16;5007895;28;20042;-90
2021/10/27 01:55:17;;;;;;;29.33;20.05;;;;;;;12.65;100.00;101645.22;4991631;28;20640;-86
2021/10/27 01:57:43;;;;;;;27.50;18.35;;;;;;;12.64;100.00;101644.41;5006253;28;20038;-88
2021/10/27 02:00:18;;;;;;;27.85;19.67;;;;;;;12.64;100.00;101648.94;5005141;28;20398;-86
2021/10/27 02:02:43;;;;;;;32.63;19.13;;;;;;;12.64;100.00;101630.94;4984451;28;20034;-88
2021/10/27 02:05:14;;;;;;;30.38;19.08;;;;;;;12.61;100.00;101623.16;5004198;28;20046;-88
2021/10/27 02:07:40;;;;;;;29.48;20.10;;;;;;;12.59;100.00;101619.78;5004471;28;20046;-83
2021/10/27 02:10:08;;;;;;;28.65;19.98;;;;;;;12.59;100.00;101624.31;4976646;28;20057;-87
2021/10/27 02:12:40;;;;;;;30.88;21.45;;;;;;;12.60;100.00;101615.22;4971914;28;20042;-86
2021/10/27 02:15:06;;;;;;;31.08;19.90;;;;;;;12.61;100.00;101622.34;5004857;28;20037;-87
2021/10/27 02:17:35;;;;;;;30.02;20.60;;;;;;;12.59;100.00;101614.41;5003983;28;20045;-83
2021/10/27 02:20:05;;;;;;;29.83;20.15;;;;;;;12.58;100.00;101617.25;5003161;28;20046;-85
2021/10/27 02:22:30;;;;;;;31.25;19.17;;;;;;;12.60;100.00;101608.03;4991101;28;20050;-87
2021/10/27 02:24:55;;;;;;;29.67;18.55;;;;;;;12.60;100.00;101617.94;4955181;28;20054;-88
2021/10/27 02:27:21;;;;;;;29.42;19.80;;;;;;;12.60;100.00;101616.09;5003468;28;20046;-88
2021/10/27 02:29:46;;;;;;;30.98;21.70;;;;;;;12.60;100.00;101624.19;4972956;28;20072;-83
2021/10/27 02:32:11;;;;;;;31.08;20.15;;;;;;;12.61;100.00;101622.34;4988012;28;20039;-87
2021/10/27 02:34:38;;;;;;;34.08;19.40;;;;;;;12.60;100.00;101621.50;5006982;28;20523;-85
2021/10/27 02:37:04;;;;;;;31.25;19.10;;;;;;;12.60;100.00;101620.63;5003433;28;20117;-87
2021/10/27 02:39:30;;;;;;;31.13;19.08;;;;;;;12.61;100.00;101625.03;4988876;28;20109;-83
2021/10/27 02:41:56;;;;;;;29.88;19.05;;;;;;;12.63;100.00;101620.34;4985016;28;20034;-84
2021/10/27 02:44:22;;;;;;;29.42;19.45;;;;;;;12.63;100.00;101620.34;5005821;28;20558;-87
2021/10/27 02:46:48;;;;;;;30.90;19.42;;;;;;;12.63;100.00;101614.94;4991733;28;20495;-86
2021/10/27 02:49:14;;;;;;;28.92;18.75;;;;;;;12.62;100.00;101614.06;4992189;28;20077;-86
2021/10/27 02:51:44;;;;;;;30.95;20.88;;;;;;;12.63;100.00;101618.47;4993886;28;20078;-84
2021/10/27 02:54:09;;;;;;;30.90;21.25;;;;;;;12.65;100.00;101621.00;4992757;28;20111;-84
2021/10/27 02:56:37;;;;;;;28.10;17.65;;;;;;;12.65;100.00;101623.69;4993194;28;20498;-83
2021/10/27 02:59:02;;;;;;;27.40;18.45;;;;;;;12.65;100.00;101621.00;4975949;28;20080;-88
2021/10/27 03:01:29;;;;;;;33.78;19.33;;;;;;;12.66;100.00;101614.63;5010421;28;20037;-83
2021/10/27 03:03:55;;;;;;;25.10;18.30;;;;;;;12.65;100.00;101615.63;4977338;28;20046;-82
2021/10/27 03:06:21;;;;;;;25.83;18.27;;;;;;;12.68;100.00;101617.16;5008174;28;20087;-82
2021/10/27 03:08:47;;;;;;;24.75;18.92;;;;;;;12.70;100.00;101626.75;5004157;28;20045;-85
2021/10/27 03:11:13;;;;;;;24.30;16.20;;;;;;;12.70;100.00;101624.06;5010747;28;20085;-90
2021/10/27 03:13:40;;;;;;;28.35;18.27;;;;;;;12.73;100.00;101620.22;5009066;28;20107;-83
2021/10/27 03:16:07;;;;;;;23.75;17.60;;;;;;;12.74;100.00;101624.59;5002892;28;20472;-83
2021/10/27 03:18:34;;;;;;;25.02;17.02;;;;;;;12.74;100.00;101619.22;5011822;28;20395;-86
2021/10/27 03:21:02;;;;;;;26.52;16.83;;;;;;;12.74;100.00;101636.19;4994102;28;20041;-84
2021/10/27 03:23:27;;;;;;;26.58;17.00;;;;;;;12.75;100.00;101639.75;5011293;28;20490;-86
2021/10/27 03:25:53;;;;;;;27.55;18.27;;;;;;;12.75;100.00;101629.00;4990903;28;20099;-84
2021/10/27 03:28:18;;;;;;;26.42;18.20;;;;;;;12.75;100.00;101637.06;4975060;28;20033;-90
2021/10/27 03:30:43;;;;;;;26.33;18.40;;;;;;;12.75;100.00;101634.38;5010281;28;20053;-83
2021/10/27 03:33:12;;;;;;;25.30;18.30;;;;;;;12.75;100.00;101623.59;4987710;28;20030;-83
2021/10/27 03:35:38;;;;;;;26.73;17.42;;;;;;;12.76;100.00;101620.75;4990064;28;20241;-88
2021/10/27 03:38:05;;;;;;;24.67;16.20;;;;;;;12.75;100.00;101619.06;4991373;28;20487;-86
2021/10/27 03:40:31;;;;;;;28.80;17.15;;;;;;;12.75;100.00;101629.00;4960030;28;20140;-86
2021/10/27 03:42:58;;;;;;;26.17;16.00;;;;;;;12.74;100.00;101636.19;4989434;28;20092;-89
2021/10/27 03:45:23;;;;;;;29.67;17.45;;;;;;;12.73;100.00;101621.06;4985396;28;20514;-85
2021/10/27 03:47:49;;;;;;;27.15;17.35;;;;;;;12.73;100.00;101629.13;4985790;28;20064;-82
2021/10/27 03:50:16;;;;;;;28.92;18.13;;;;;;;12.72;100.00;101630.16;4990186;28;20073;-86
2021/10/27 03:52:44;;;;;;;28.25;17.83;;;;;;;12.71;100.00;101631.13;4977883;28;20068;-87
2021/10/27 03:55:10;;;;;;;24.60;15.98;;;;;;;12.69;100.00;101638.56;5009265;28;20042;-86
2021/10/27 03:57:36;;;;;;;22.83;16.35;;;;;;;12.68;100.00;101630.63;5006988;28;20096;-88
2021/10/27 04:00:05;;;;;;;25.85;17.90;;;;;;;12.68;100.00;101639.53;4990722;28;20044;-84
2021/10/27 04:02:31;;;;;;;23.63;14.82;;;;;;;12.66;100.00;101636.19;4993791;28;20566;-84
2021/10/27 04:04:57;;;;;;;24.27;15.88;;;;;;;12.66;100.00;101638.88;4989507;28;20046;-85
2021/10/27 04:07:22;;;;;;;25.55;15.57;;;;;;;12.63;100.00;101637.31;5008692;28;20079;-84
2021/10/27 04:09:47;;;;;;;23.98;14.95;;;;;;;12.64;100.00;101651.63;4996115;28;20129;-83
2021/10/27 04:12:13;;;;;;;26.80;15.82;;;;;;;12.63;100.00;101655.34;5002424;28;20054;-82
2021/10/27 04:14:38;;;;;;;26.77;15.95;;;;;;;12.63;100.00;101645.41;4985569;28;20053;-85
2021/10/27 04:17:03;;;;;;;20.98;14.20;;;;;;;12.63;100.00;101644.56;5010554;28;20372;-86
2021/10/27 04:19:32;;;;;;;24.48;15.25;;;;;;;12.62;100.00;101646.38;4990973;28;20371;-85
2021/10/27 04:22:03;;;;;;;20.33;13.38;;;;;;;12.63;100.00;101649.94;5003039;28;20498;-83
2021/10/27 04:24:28;;;;;;;20.02;12.20;;;;;;;12.62;100.00;101637.47;4980620;28;20038;-85
2021/10/27 04:27:02;;;;;;;26.45;14.05;;;;;;;12.64;100.00;101654.31;4974032;28;20571;-85
2021/10/27 04:29:27;;;;;;;22.10;13.35;;;;;;;12.65;100.00;101656.00;5005308;28;20043;-88
2021/10/27 04:31:54;;;;;;;21.73;14.00;;;;;;;12.65;100.00;101664.91;4994095;28;20051;-87
2021/10/27 04:34:21;;;;;;;19.90;12.98;;;;;;;12.66;100.00;101652.31;4993726;28;20041;-87
2021/10/27 04:36:48;;;;;;;19.10;13.27;;;;;;;12.67;100.00;101645.94;4989594;28;20121;-85
2021/10/27 04:39:14;;;;;;;22.30;12.95;;;;;;;12.67;100.00;101650.47;4992198;28;20045;-85
2021/10/27 04:41:42;;;;;;;25.17;13.52;;;;;;;12.67;100.00;101645.94;4980217;28;20070;-85
2021/10/27 04:44:07;;;;;;;21.92;12.18;;;;;;;12.68;100.00;101642.22;4985377;28;20048;-85
2021/10/27 04:46:35;;;;;;;17.75;12.25;;;;;;;12.67;100.00;101648.63;4983425;28;20393;-91
2021/10/27 04:49:00;;;;;;;22.27;12.32;;;;;;;12.66;100.00;101649.63;4984565;28;20049;-87
2021/10/27 04:51:26;;;;;;;22.10;11.68;;;;;;;12.68;100.00;101644.06;4982680;28;20041;-86
2021/10/27 04:53:51;;;;;;;21.08;12.07;;;;;;;12.67;100.00;101653.16;4979700;28;20388;-87
2021/10/27 04:56:18;;;;;;;21.52;11.90;;;;;;;12.68;100.00;101647.59;4972512;28;20050;-86
2021/10/27 04:58:43;;;;;;;19.70;11.88;;;;;;;12.67;100.00;101645.94;4986959;28;20429;-86
2021/10/27 05:01:08;;;;;;;19.80;11.63;;;;;;;12.68;100.00;101636.00;4975400;28;20045;-83
2021/10/27 05:03:34;;;;;;;20.70;11.30;;;;;;;12.68;100.00;101644.06;4996929;28;20046;-84
2021/10/27 05:06:01;;;;;;;19.55;11.68;;;;;;;12.67;100.00;101647.78;4986097;28;20038;-88
2021/10/27 05:08:30;;;;;;;17.25;11.27;;;;;;;12.68;100.00;101652.16;5005942;28;20041;-88
2021/10/27 05:10:56;;;;;;;16.88;11.38;;;;;;;12.67;100.00;101648.63;4992686;28;20129;-84
2021/10/27 05:13:21;;;;;;;21.25;10.25;;;;;;;12.66;100.00;101649.63;4985537;28;20149;-87
2021/10/27 05:15:50;;;;;;;16.15;10.43;;;;;;;12.66;100.00;101655.03;4999753;28;20494;-86
2021/10/27 05:18:16;;;;;;;16.85;10.20;;;;;;;12.67;100.00;101659.41;4987834;28;20041;-87
2021/10/27 05:20:49;;;;;;;17.35;10.38;;;;;;;12.69;100.00;101648.44;5002346;28;20056;-85
2021/10/27 05:23:15;;;;;;;21.88;10.73;;;;;;;12.68;100.00;101650.31;4973198;28;20073;-83
2021/10/27 05:25:41;;;;;;;21.70;10.60;;;;;;;12.68;100.00;101653.00;5007625;28;20049;-85
2021/10/27 05:28:11;;;;;;;19.45;10.77;;;;;;;12.71;100.00;101662.63;5006402;28;20030;-88
2021/10/27 05:30:38;;;;;;;17.00;9.80;;;;;;;12.69;100.00;101659.22;5004514;28;20565;-90
2021/10/27 05:33:13;;;;;;;16.17;9.00;;;;;;;12.69;100.00;101657.41;5000636;28;20095;-88
2021/10/27 05:35:38;;;;;;;18.95;9.07;;;;;;;12.70;100.00;101659.06;4969208;28;20099;-90
2021/10/27 05:38:10;;;;;;;16.67;9.63;;;;;;;12.69;100.00;101651.16;4989331;28;20569;-83
2021/10/27 05:40:36;;;;;;;17.85;8.98;;;;;;;12.69;100.00;101662.78;5005329;28;20054;-85
2021/10/27 05:43:14;;;;;;;16.85;9.38;;;;;;;12.69;100.00;101653.84;4981733;28;20049;-85
2021/10/27 05:45:39;;;;;;;15.88;9.20;;;;;;;12.69;100.00;101657.41;4981727;28;20449;-87
2021/10/27 05:48:06;;;;;;;14.52;8.57;;;;;;;12.68;100.00;101658.38;4985688;28;20053;-86
2021/10/27 05:50:37;;;;;;;18.00;8.95;;;;;;;12.70;100.00;101669.84;4987020;28;20038;-87
2021/10/27 05:55:47;;;;;;;17.10;8.23;;;;;;;12.69;100.00;101672.69;5000316;28;20693;-87
2021/10/27 05:58:13;;;;;;;16.00;9.45;;;;;;;12.69;100.00;101676.25;4985348;28;20046;-86
2021/10/27 06:00:41;;;;;;;17.73;7.90;;;;;;;12.68;100.00;101669.16;4982094;28;20137;-84
2021/10/27 06:03:06;;;;;;;16.30;7.93;;;;;;;12.68;100.00;101666.47;5002415;28;20039;-85
2021/10/27 06:05:31;;;;;;;15.55;8.18;;;;;;;12.69;100.00;101675.38;4968323;28;20042;-87
2021/10/27 06:07:58;;;;;;;14.85;8.30;;;;;;;12.67;100.00;101677.41;4971205;28;20088;-84
2021/10/27 06:10:25;;;;;;;16.10;7.88;;;;;;;12.66;100.00;101668.50;5000465;28;20046;-83
2021/10/27 06:12:55;;;;;;;17.13;8.23;;;;;;;12.65;100.00;101678.38;4969266;28;20129;-83
2021/10/27 06:15:22;;;;;;;15.73;8.73;;;;;;;12.64;100.00;101678.56;5000288;28;20033;-87
2021/10/27 06:17:49;;;;;;;18.38;8.75;;;;;;;12.61;100.00;101678.88;4998957;28;20410;-86
2021/10/27 06:20:15;;;;;;;15.65;8.30;;;;;;;12.61;100.00;101678.88;4990998;28;20539;-87
2021/10/27 06:22:41;;;;;;;14.95;8.38;;;;;;;12.58;100.00;101680.03;4992379;28;20141;-85
2021/10/27 06:25:09;;;;;;;16.27;8.75;;;;;;;12.60;100.00;101685.25;5005484;28;20030;-87
2021/10/27 06:27:35;;;;;;;16.38;8.05;;;;;;;12.60;100.00;101688.81;4991216;28;20131;-86
2021/10/27 06:30:08;;;;;;;15.70;8.30;;;;;;;12.57;100.00;101667.56;4972728;28;20237;-86
2021/10/27 06:32:40;;;;;;;16.35;8.65;;;;;;;12.59;100.00;101676.31;5001881;28;20415;-87
2021/10/27 06:35:12;;;;;;;16.55;8.57;;;;;;;12.58;100.00;101681.88;4974781;28;20406;-86
2021/10/27 06:48:19;;;;;;;20.67;9.50;;;;;;;12.63;100.00;101699.25;5000307;28;20563;-85
2021/10/27 06:50:44;;;;;;;15.98;9.30;;;;;;;12.65;100.00;101704.47;4989091;28;20133;-85
2021/10/27 06:53:10;;;;;;;16.27;8.43;;;;;;;12.67;100.00;101693.56;4971045;28;20053;-88
2021/10/27 06:55:38;;;;;;;14.48;8.23;;;;;;;12.66;100.00;101700.81;4981303;28;20484;-87
2021/10/27 06:58:04;;;;;;;12.68;8.07;;;;;;;12.67;100.00;101713.25;4990326;28;20478;-84
2021/10/27 07:00:42;;;;;;;12.60;7.63;;;;;;;12.68;100.00;101708.72;4990720;28;20034;-86
2021/10/27 07:05:52;;;;;;;16.00;7.80;;;;;;;12.70;100.00;101715.63;4990505;28;20069;-86
2021/10/27 07:16:31;;;;;;;12.10;6.63;;;;;;;12.74;100.00;101713.47;4946200;28;20092;-84
2021/10/27 07:18:56;;;;;;;15.40;7.57;;;;;;;12.75;100.00;101713.31;4988856;28;20057;-88
2021/10/27 07:21:22;;;;;;;14.07;7.50;;;;;;;12.78;100.00;101728.34;4971708;28;20431;-86
2021/10/27 07:23:47;;;;;;;11.93;6.70;;;;;;;12.78;100.00;101729.16;4973989;28;20056;-88
2021/10/27 07:26:15;;;;;;;12.80;6.95;;;;;;;12.78;100.00;101731.88;5003270;28;20111;-84
2021/10/27 07:28:43;;;;;;;13.40;6.60;;;;;;;12.80;100.00;101729.88;4999218;28;20042;-87
2021/10/27 07:31:12;;;;;;;12.38;7.30;;;;;;;12.79;100.00;101733.53;5003966;28;20046;-87
2021/10/27 07:33:37;;;;;;;;;;;;;;;12.83;100.00;101743.03;4973707;28;20039;-85
2021/10/27 07:36:13;;;;;;;13.77;7.75;;;;;;;12.77;100.00;101740.94;4984673;28;19913;-85
2021/10/27 07:41:22;;;;;;;11.95;6.85;;;;;;;12.79;100.00;101747.00;4982118;28;20065;-87
2021/10/27 07:43:48;;;;;;;14.20;7.25;;;;;;;12.83;100.00;101756.50;5003914;28;20817;-87
2021/10/27 07:46:14;;;;;;;13.52;6.60;;;;;;;12.84;100.00;101755.47;5011884;28;20403;-86
2021/10/27 07:48:39;;;;;;;13.82;6.30;;;;;;;12.85;100.00;101759.00;4994792;28;20046;-85
2021/10/27 07:51:05;;;;;;;11.43;6.13;;;;;;;12.85;100.00;101746.38;4975450;28;20034;-85
2021/10/27 07:53:32;;;;;;;13.10;6.32;;;;;;;12.88;100.00;101761.41;4975195;28;20045;-85
2021/10/27 07:56:00;;;;;;;13.38;6.38;;;;;;;12.86;100.00;101766.94;4983032;28;20129;-85
2021/10/27 07:58:26;;;;;;;14.50;6.50;;;;;;;12.89;100.00;101768.50;4986259;28;20038;-89
2021/10/27 08:00:53;;;;;;;10.65;6.88;;;;;;;12.91;100.00;101769.16;4991830;28;20057;-84
2021/10/27 08:03:19;;;;;;;10.90;5.75;;;;;;;12.91;100.00;101776.41;5005111;28;20159;-89
2021/10/27 08:05:44;;;;;;;12.20;6.03;;;;;;;12.92;100.00;101784.34;4969176;28;20479;-85
2021/10/27 08:08:18;;;;;;;14.27;6.35;;;;;;;12.92;100.00;101780.78;5003429;28;20157;-84
2021/10/27 08:10:43;;;;;;;12.35;5.60;;;;;;;12.94;100.00;101781.47;4987409;28;20034;-84
2021/10/27 08:13:10;;;;;;;12.85;5.63;;;;;;;12.94;100.00;101785.00;4999523;28;20031;-85
2021/10/27 08:15:36;;;;;;;14.25;6.07;;;;;;;12.94;100.00;101785.00;4986451;28;20057;-85
2021/10/27 08:18:03;;;;;;;13.07;6.63;;;;;;;12.95;100.00;101792.13;4989177;28;20457;-86
2021/10/27 08:20:30;;;;;;;11.75;6.20;;;;;;;12.97;100.00;101790.09;4989764;28;20486;-85
2021/10/27 08:22:58;;;;;;;13.85;6.00;;;;;;;13.00;100.00;101791.63;4986601;28;20490;-85
2021/10/27 08:28:07;;;;;;;11.88;5.78;;;;;;;13.01;100.00;101788.78;5005294;28;20038;-84
2021/10/27 08:34:09;;;;;;;13.95;5.80;;;;;;;13.04;100.00;101791.16;4966703;28;20777;-85
2021/10/27 08:36:06;;;;;;;13.00;5.70;;;;;;;13.07;100.00;101792.72;4990277;28;20046;-87
2021/10/27 08:38:31;;;;;;;8.77;5.22;;;;;;;13.09;100.00;101790.72;5002985;28;20073;-84
2021/10/27 08:40:57;;;;;;;13.40;6.13;;;;;;;13.12;100.00;101787.72;5001258;28;20103;-86
2021/10/27 08:43:25;;;;;;;10.63;5.28;;;;;;;13.14;100.00;101791.06;4986843;28;20409;-87
2021/10/27 08:45:50;;;;;;;16.23;5.65;;;;;;;13.16;100.00;101797.16;4988489;28;20046;-86
2021/10/27 08:48:16;;;;;;;14.23;5.63;;;;;;;13.18;100.00;101787.06;5002367;28;20099;-87
2021/10/27 08:50:46;;;;;;;15.50;6.38;;;;;;;13.21;100.00;101792.16;4987905;28;20066;-86
2021/10/27 08:53:14;;;;;;;14.52;6.45;;;;;;;13.23;100.00;101789.28;5005157;28;20148;-87
2021/10/27 08:55:41;;;;;;;13.32;7.18;;;;;;;13.24;100.00;101791.84;5004955;28;20671;-87
2021/10/27 08:58:07;;;;;;;13.57;6.20;;;;;;;13.26;100.00;101787.16;5000536;28;20511;-85
2021/10/27 09:03:18;;;;;;;11.02;6.20;;;;;;;13.30;100.00;101793.91;4999419;28;20023;-85
2021/10/27 09:05:53;;;;;;;14.05;6.15;;;;;;;13.31;100.00;101798.31;5004649;28;20129;-88
2021/10/27 09:16:40;;;;;;;11.77;6.20;;;;;;;13.45;100.00;101794.19;4999673;28;20516;-87
2021/10/27 09:36:18;;;;;;;9.95;6.18;;;;;;;13.73;100.00;101781.38;5008719;28;20044;-83
2021/10/27 09:55:41;;;;;;;14.77;6.60;;;;;;;13.76;100.00;101781.06;4984580;28;20156;-85
2021/10/27 10:06:29;;;;;;;10.02;5.50;;;;;;;14.00;98.94;101784.84;4943488;29;20040;-85
2021/10/27 10:08:56;;;;;;;12.10;6.10;;;;;;;14.08;98.82;101782.19;4938975;28;20453;-86
2021/10/27 10:11:23;;;;;;;11.38;5.30;;;;;;;14.19;97.93;101771.09;4932688;29;20111;-85
2021/10/27 10:14:04;;;;;;;9.20;5.45;;;;;;;14.23;97.02;101783.25;4948703;28;20579;-87
2021/10/27 10:16:33;;;;;;;10.15;5.28;;;;;;;14.33;97.02;101776.88;4917026;29;20492;-87
2021/10/27 10:19:07;;;;;;;9.15;4.47;;;;;;;14.42;96.72;101784.84;4948179;28;20039;-90
2021/10/27 10:21:42;;;;;;;10.77;5.35;;;;;;;14.46;96.24;101785.34;4933719;29;20039;-84
2021/10/27 10:24:13;;;;;;;8.60;5.50;;;;;;;14.49;96.33;101779.59;4952351;28;20073;-87
2021/10/27 10:26:41;;;;;;;7.88;5.03;;;;;;;14.52;95.56;101782.00;5008012;28;20038;-86
2021/10/27 10:29:07;;;;;;;8.27;4.72;;;;;;;14.53;95.02;101789.13;5007709;28;20445;-88
2021/10/27 10:31:35;;;;;;;9.13;5.05;;;;;;;14.57;95.51;101778.81;5009922;28;20057;-83
2021/10/27 10:34:07;;;;;;;12.07;5.20;;;;;;;14.59;95.50;101788.44;5003803;28;20037;-86
2021/10/27 10:36:36;;;;;;;12.25;5.40;;;;;;;14.63;95.76;101789.78;4969661;28;20042;-86
2021/10/27 11:25:09;;;;;;;6.63;4.10;;;;;;;15.53;88.80;101769.97;5023888;28;20088;-82
2021/10/27 11:42:40;;;;;;;11.50;4.85;;;;;;;15.97;87.87;101748.72;4993535;28;20052;-88
2021/10/27 11:45:35;;;;;;;9.93;4.95;;;;;;;16.00;87.74;101753.78;5003871;28;20076;-85
2021/10/27 11:48:28;;;;;;;7.55;4.75;;;;;;;16.11;86.89;101741.72;4993362;28;20161;-84
2021/10/27 11:50:53;;;;;;;7.97;4.93;;;;;;;16.09;87.15;101753.72;5004127;28;20523;-89
2021/10/27 11:53:30;;;;;;;7.53;4.68;;;;;;;16.10;86.66;101758.13;5006137;28;20049;-87
2021/10/27 11:55:57;;;;;;;12.52;5.47;;;;;;;16.10;87.80;101741.88;4977666;28;20486;-83
2021/10/27 11:58:38;;;;;;;10.15;4.78;;;;;;;16.08;88.10;101741.19;4989246;28;20468;-84
2021/10/27 12:01:05;;;;;;;10.30;4.75;;;;;;;16.11;88.41;101748.97;5004575;28;20037;-85
2021/10/27 12:03:43;;;;;;;8.75;4.30;;;;;;;16.14;89.30;101756.72;4991360;28;20042;-85
2021/10/27 12:06:32;;;;;;;11.15;5.32;;;;;;;16.11;88.65;101751.66;4991244;28;20052;-90
2021/10/27 12:09:15;;;;;;;9.48;4.25;;;;;;;16.07;87.95;101756.59;5010779;28;20080;-83
2021/10/27 12:14:54;;;;;;;11.52;5.18;;;;;;;15.95;87.26;101756.16;4974592;28;20037;-84
2021/10/27 12:17:34;;;;;;;8.95;4.38;;;;;;;15.87;87.25;101745.34;5006342;28;20111;-87
2021/10/27 12:20:00;;;;;;;10.13;4.55;;;;;;;15.83;86.46;101738.63;4988292;28;20038;-87
2021/10/27 12:22:25;;;;;;;8.48;4.93;;;;;;;15.79;86.61;101734.56;4991473;28;20068;-83
2021/10/27 12:24:56;;;;;;;9.73;4.90;;;;;;;15.81;87.04;101737.94;5009649;28;20120;-84
2021/10/27 12:27:37;;;;;;;8.95;4.70;;;;;;;15.75;87.18;101730.53;5010396;28;20128;-83
2021/10/27 12:30:08;;;;;;;8.65;4.72;;;;;;;15.74;88.06;101731.56;4999652;28;20103;-84
2021/10/27 12:32:34;;;;;;;7.35;4.50;;;;;;;15.73;87.16;101729.84;5007320;28;20050;-88
2021/10/27 12:35:09;;;;;;;10.50;5.00;;;;;;;15.75;87.72;101725.13;5001863;28;20060;-84
2021/10/27 12:37:43;;;;;;;10.68;5.55;;;;;;;15.76;88.38;101733.06;5005436;28;20439;-86
2021/10/27 12:40:20;;;;;;;8.45;4.40;;;;;;;15.72;87.83;101733.59;4997451;28;20038;-83
2021/10/27 12:42:46;;;;;;;11.18;5.30;;;;;;;15.71;87.90;101734.63;5004338;28;20042;-85
2021/10/27 12:45:12;;;;;;;11.02;4.93;;;;;;;15.66;87.39;101720.75;4994420;28;20144;-87
2021/10/27 12:47:40;;;;;;;9.05;4.82;;;;;;;15.66;88.53;101718.03;4971594;28;20044;-86
2021/10/27 12:50:07;;;;;;;8.40;4.80;;;;;;;15.64;87.72;101717.34;4989126;28;20514;-82
2021/10/27 12:52:36;;;;;;;8.80;5.38;;;;;;;15.60;87.88;101713.31;4998900;28;20307;-88
2021/10/27 12:55:05;;;;;;;10.35;5.57;;;;;;;15.68;89.35;101713.31;4981488;28;20133;-87
2021/10/27 12:57:45;;;;;;;10.10;4.85;;;;;;;15.70;89.33;101711.28;5005594;28;20097;-88
2021/10/27 13:00:33;;;;;;;9.50;5.47;;;;;;;15.72;89.16;101704.66;5003345;28;20073;-90
2021/10/27 13:04:01;;;;;;;8.65;4.70;;;;;;;15.72;88.69;101693.00;4991941;28;20044;-91
2021/10/27 13:06:11;;;;;;;9.32;5.10;;;;;;;15.70;88.46;101695.03;4996851;28;20038;-89
2021/10/27 13:32:15;;;;;;;8.95;5.25;;;;;;;16.03;88.06;101684.91;5011618;28;20042;-89
2021/10/27 13:34:41;;;;;;;10.57;5.72;;;;;;;16.01;87.83;101692.34;4992166;28;20056;-88
2021/10/27 13:37:07;;;;;;;10.70;4.90;;;;;;;15.99;87.53;101678.97;4986661;28;20490;-85
2021/10/27 13:39:33;;;;;;;9.30;5.30;;;;;;;15.93;86.04;101682.41;4991357;28;20065;-86
2021/10/27 13:42:03;;;;;;;9.20;5.18;;;;;;;16.06;87.26;101691.81;4999336;28;20040;-86
2021/10/27 13:44:34;;;;;;;11.77;5.32;;;;;;;16.14;85.33;101680.91;4986438;28;20053;-89
2021/10/27 13:57:42;;;;;;;11.55;4.90;;;;;;;16.20;86.05;101677.50;5005832;28;20173;-89
2021/10/27 13:57:57;;;;;;;11.75;4.50;;;;;;;16.21;85.77;101663.78;5011996;28;20088;-87
2021/10/27 14:06:00;;;;;;;8.55;4.25;;;;;;;16.15;86.19;101664.50;4990272;28;20505;-91
2021/10/27 14:08:49;;;;;;;9.43;4.32;;;;;;;16.21;87.75;101668.34;4991944;28;20042;-88
2021/10/27 14:50:31;;;;;;;8.52;5.07;;;;;;;16.65;84.20;101656.81;5008178;28;20513;-89
2021/10/27 14:51:23;;;;;;;9.80;4.07;;;;;;;16.62;84.67;101644.47;5005860;28;20050;-87
2021/10/27 15:15:33;;;;;;;9.65;3.35;;;;;;;16.44;81.02;101641.25;5025638;28;20045;-85
2021/10/27 15:23:55;;;;;;;7.28;3.83;;;;;;;15.96;85.86;101637.88;5005792;28;20050;-90
2021/10/27 15:29:27;;;;;;;9.13;3.97;;;;;;;15.90;85.27;101649.44;4993888;28;20117;-89